sensor_id;sensor_type;location;lat;lon;timestamp;temperature;humidity
5394;DHT22;2720;52.396;10.064;2022-07-23T00:00:21;14.20;99.90
5394;DHT22;2720;52.396;10.064;2022-07-23T00:07:45;14.20;99.90
5394;DHT22;2720;52.396;10.064;2022-07-23T00:10:15;14.40;99.90
5394;DHT22;2720;52.396;10.064;2022-07-23T00:12:42;14.30;99.90
5394;DHT22;2720;52.396;10.064;2022-07-23T00:17:37;14.50;99.90
5394;DHT22;2720;52.396;10.064;2022-07-23T00:22:33;13.00;99.90
5394;DHT22;2720;52.396;10.064;2022-07-23T00:25:00;14.90;99.90
5394;DHT22;2720;52.396;10.064;2022-07-23T00:27:27;14.60;99.90
5394;DHT22;2720;52.396;10.064;2022-07-23T00:29:54;14.70;99.90
5394;DHT22;2720;52.396;10.064;2022-07-23T00:32:22;14.70;99.90
5394;DHT22;2720;52.396;10.064;2022-07-23T00:34:49;14.70;99.90
5394;DHT22;2720;52.396;10.064;2022-07-23T00:37:17;14.80;99.90
5394;DHT22;2720;52.396;10.064;2022-07-23T00:42:11;15.10;99.90
5394;DHT22;2720;52.396;10.064;2022-07-23T00:44:38;14.40;99.90
5394;DHT22;2720;52.396;10.064;2022-07-23T00:47:06;14.50;99.90
5394;DHT22;2720;52.396;10.064;2022-07-23T00:49:33;13.90;99.90
5394;DHT22;2720;52.396;10.064;2022-07-23T00:52:02;14.40;99.90
5394;DHT22;2720;52.396;10.064;2022-07-23T00:54:30;14.30;99.90
5394;DHT22;2720;52.396;10.064;2022-07-23T00:56:57;14.30;99.90
5394;DHT22;2720;52.396;10.064;2022-07-23T00:59:25;14.20;99.90
5394;DHT22;2720;52.396;10.064;2022-07-23T01:01:52;14.10;99.90
5394;DHT22;2720;52.396;10.064;2022-07-23T01:04:19;14.10;99.90
5394;DHT22;2720;52.396;10.064;2022-07-23T01:06:46;14.00;99.90
5394;DHT22;2720;52.396;10.064;2022-07-23T01:11:42;13.80;99.90
5394;DHT22;2720;52.396;10.064;2022-07-23T01:14:11;13.70;99.90
5394;DHT22;2720;52.396;10.064;2022-07-23T01:16:39;12.30;99.90
5394;DHT22;2720;52.396;10.064;2022-07-23T01:19:06;13.60;99.90
5394;DHT22;2720;52.396;10.064;2022-07-23T01:21:36;13.40;99.90
5394;DHT22;2720;52.396;10.064;2022-07-23T01:24:06;13.50;99.90
5394;DHT22;2720;52.396;10.064;2022-07-23T01:26:33;13.30;99.90
5394;DHT22;2720;52.396;10.064;2022-07-23T01:29:00;12.30;99.90
5394;DHT22;2720;52.396;10.064;2022-07-23T01:31:27;13.50;99.90
5394;DHT22;2720;52.396;10.064;2022-07-23T01:33:55;13.20;99.90
5394;DHT22;2720;52.396;10.064;2022-07-23T01:41:18;13.40;99.90
5394;DHT22;2720;52.396;10.064;2022-07-23T01:43:45;13.30;99.90
5394;DHT22;2720;52.396;10.064;2022-07-23T01:46:12;12.00;99.90
5394;DHT22;2720;52.396;10.064;2022-07-23T01:51:07;13.30;99.90
5394;DHT22;2720;52.396;10.064;2022-07-23T01:56:02;13.20;99.90
5394;DHT22;2720;52.396;10.064;2022-07-23T01:58:31;13.10;99.90
5394;DHT22;2720;52.396;10.064;2022-07-23T02:03:26;13.10;99.90
5394;DHT22;2720;52.396;10.064;2022-07-23T02:05:53;13.20;99.90
5394;DHT22;2720;52.396;10.064;2022-07-23T02:08:20;13.40;99.90
5394;DHT22;2720;52.396;10.064;2022-07-23T02:10:47;12.60;99.90
5394;DHT22;2720;52.396;10.064;2022-07-23T02:15:45;13.10;99.90
5394;DHT22;2720;52.396;10.064;2022-07-23T02:18:13;13.20;99.90
5394;DHT22;2720;52.396;10.064;2022-07-23T02:20:40;13.00;99.90
5394;DHT22;2720;52.396;10.064;2022-07-23T02:25:34;13.00;99.90
5394;DHT22;2720;52.396;10.064;2022-07-23T02:28:02;13.10;99.90
5394;DHT22;2720;52.396;10.064;2022-07-23T02:30:29;13.10;99.90
5394;DHT22;2720;52.396;10.064;2022-07-23T02:32:57;13.30;99.90
5394;DHT22;2720;52.396;10.064;2022-07-23T02:35:24;13.30;99.90
5394;DHT22;2720;52.396;10.064;2022-07-23T02:37:51;12.90;99.90
5394;DHT22;2720;52.396;10.064;2022-07-23T02:40:18;13.00;99.90
5394;DHT22;2720;52.396;10.064;2022-07-23T02:42:45;13.00;99.90
5394;DHT22;2720;52.396;10.064;2022-07-23T02:45:12;11.70;99.90
5394;DHT22;2720;52.396;10.064;2022-07-23T02:47:39;12.80;99.90
5394;DHT22;2720;52.396;10.064;2022-07-23T02:50:08;12.80;99.90
5394;DHT22;2720;52.396;10.064;2022-07-23T02:52:36;12.90;99.90
5394;DHT22;2720;52.396;10.064;2022-07-23T02:55:03;12.90;99.90
5394;DHT22;2720;52.396;10.064;2022-07-23T02:57:31;12.90;99.90
5394;DHT22;2720;52.396;10.064;2022-07-23T02:59:58;12.80;99.90
5394;DHT22;2720;52.396;10.064;2022-07-23T03:02:25;12.80;99.90
5394;DHT22;2720;52.396;10.064;2022-07-23T03:04:51;12.80;99.90
5394;DHT22;2720;52.396;10.064;2022-07-23T03:07:20;12.90;99.90
5394;DHT22;2720;52.396;10.064;2022-07-23T03:09:47;12.90;99.90
5394;DHT22;2720;52.396;10.064;2022-07-23T03:12:14;12.80;99.90
5394;DHT22;2720;52.396;10.064;2022-07-23T03:14:41;13.10;99.90
5394;DHT22;2720;52.396;10.064;2022-07-23T03:19:35;13.20;99.90
5394;DHT22;2720;52.396;10.064;2022-07-23T03:22:04;13.40;99.90
5394;DHT22;2720;52.396;10.064;2022-07-23T03:24:32;13.40;99.90
5394;DHT22;2720;52.396;10.064;2022-07-23T03:27:17;13.60;99.90
5394;DHT22;2720;52.396;10.064;2022-07-23T03:29:44;13.20;99.90
5394;DHT22;2720;52.396;10.064;2022-07-23T03:32:11;13.90;99.90
5394;DHT22;2720;52.396;10.064;2022-07-23T03:34:38;14.00;99.90
5394;DHT22;2720;52.396;10.064;2022-07-23T03:37:05;13.90;99.90
5394;DHT22;2720;52.396;10.064;2022-07-23T03:42:01;14.10;99.90
5394;DHT22;2720;52.396;10.064;2022-07-23T03:44:28;14.10;99.90
5394;DHT22;2720;52.396;10.064;2022-07-23T03:46:55;14.10;99.90
5394;DHT22;2720;52.396;10.064;2022-07-23T03:49:22;14.00;99.90
5394;DHT22;2720;52.396;10.064;2022-07-23T03:51:49;14.00;99.90
5394;DHT22;2720;52.396;10.064;2022-07-23T03:54:16;13.10;99.90
5394;DHT22;2720;52.396;10.064;2022-07-23T03:56:45;14.90;99.90
5394;DHT22;2720;52.396;10.064;2022-07-23T03:59:12;14.20;99.90
5394;DHT22;2720;52.396;10.064;2022-07-23T04:01:39;14.20;99.90
5394;DHT22;2720;52.396;10.064;2022-07-23T04:06:34;14.10;99.90
5394;DHT22;2720;52.396;10.064;2022-07-23T04:09:01;14.20;99.90
5394;DHT22;2720;52.396;10.064;2022-07-23T04:11:28;14.30;99.90
5394;DHT22;2720;52.396;10.064;2022-07-23T04:13:56;14.20;99.90
5394;DHT22;2720;52.396;10.064;2022-07-23T04:18:50;14.30;99.90
5394;DHT22;2720;52.396;10.064;2022-07-23T04:21:17;14.80;99.90
5394;DHT22;2720;52.396;10.064;2022-07-23T04:26:12;14.40;99.90
5394;DHT22;2720;52.396;10.064;2022-07-23T04:28:39;14.40;99.90
5394;DHT22;2720;52.396;10.064;2022-07-23T04:31:07;14.40;99.90
5394;DHT22;2720;52.396;10.064;2022-07-23T04:33:34;14.30;99.90
5394;DHT22;2720;52.396;10.064;2022-07-23T04:36:01;14.50;99.90
5394;DHT22;2720;52.396;10.064;2022-07-23T04:38:28;14.60;99.90
5394;DHT22;2720;52.396;10.064;2022-07-23T04:40:55;14.70;99.90
5394;DHT22;2720;52.396;10.064;2022-07-23T04:43:22;14.80;99.90
5394;DHT22;2720;52.396;10.064;2022-07-23T04:45:49;14.90;99.90
5394;DHT22;2720;52.396;10.064;2022-07-23T04:48:18;15.00;99.90
5394;DHT22;2720;52.396;10.064;2022-07-23T04:50:45;15.10;99.90
5394;DHT22;2720;52.396;10.064;2022-07-23T04:53:12;15.10;99.90
5394;DHT22;2720;52.396;10.064;2022-07-23T04:55:38;15.10;99.90
5394;DHT22;2720;52.396;10.064;2022-07-23T04:58:05;15.10;99.90
5394;DHT22;2720;52.396;10.064;2022-07-23T05:00:33;13.90;99.90
5394;DHT22;2720;52.396;10.064;2022-07-23T05:03:00;14.90;99.90
5394;DHT22;2720;52.396;10.064;2022-07-23T05:05:28;14.80;99.90
5394;DHT22;2720;52.396;10.064;2022-07-23T05:07:55;14.70;99.90
5394;DHT22;2720;52.396;10.064;2022-07-23T05:10:22;14.60;99.90
5394;DHT22;2720;52.396;10.064;2022-07-23T05:12:49;14.70;99.90
5394;DHT22;2720;52.396;10.064;2022-07-23T05:15:16;14.70;99.90
5394;DHT22;2720;52.396;10.064;2022-07-23T05:17:43;14.60;99.90
5394;DHT22;2720;52.396;10.064;2022-07-23T05:20:10;14.60;99.90
5394;DHT22;2720;52.396;10.064;2022-07-23T05:22:40;14.60;99.90
5394;DHT22;2720;52.396;10.064;2022-07-23T05:25:07;13.40;99.90
5394;DHT22;2720;52.396;10.064;2022-07-23T05:27:35;13.40;99.90
5394;DHT22;2720;52.396;10.064;2022-07-23T05:30:02;14.40;99.90
5394;DHT22;2720;52.396;10.064;2022-07-23T05:32:31;14.30;99.90
5394;DHT22;2720;52.396;10.064;2022-07-23T05:34:58;13.70;99.90
5394;DHT22;2720;52.396;10.064;2022-07-23T05:37:25;14.20;99.90
5394;DHT22;2720;52.396;10.064;2022-07-23T06:51:21;16.30;99.90
5394;DHT22;2720;52.396;10.064;2022-07-23T06:53:48;16.30;99.90
5394;DHT22;2720;52.396;10.064;2022-07-23T06:56:15;16.40;99.90
5394;DHT22;2720;52.396;10.064;2022-07-23T06:58:42;16.70;99.90
5394;DHT22;2720;52.396;10.064;2022-07-23T07:01:09;16.60;99.90
5394;DHT22;2720;52.396;10.064;2022-07-23T07:03:35;16.70;99.90
5394;DHT22;2720;52.396;10.064;2022-07-23T07:06:03;16.80;99.90
5394;DHT22;2720;52.396;10.064;2022-07-23T07:08:31;16.70;99.90
5394;DHT22;2720;52.396;10.064;2022-07-23T07:10:58;16.80;99.90
5394;DHT22;2720;52.396;10.064;2022-07-23T07:13:25;17.70;99.90
5394;DHT22;2720;52.396;10.064;2022-07-23T07:15:52;16.90;99.90
5394;DHT22;2720;52.396;10.064;2022-07-23T07:18:19;18.70;99.90
5394;DHT22;2720;52.396;10.064;2022-07-23T07:20:46;18.50;99.90
5394;DHT22;2720;52.396;10.064;2022-07-23T07:23:13;17.10;99.90
5394;DHT22;2720;52.396;10.064;2022-07-23T07:28:10;17.40;99.90
5394;DHT22;2720;52.396;10.064;2022-07-23T07:30:37;17.20;99.90
5394;DHT22;2720;52.396;10.064;2022-07-23T07:33:04;17.50;99.90
5394;DHT22;2720;52.396;10.064;2022-07-23T07:35:31;17.70;99.90
5394;DHT22;2720;52.396;10.064;2022-07-23T07:37:58;17.90;99.90
5394;DHT22;2720;52.396;10.064;2022-07-23T07:40:26;18.20;99.90
5394;DHT22;2720;52.396;10.064;2022-07-23T07:42:54;18.40;99.90
5394;DHT22;2720;52.396;10.064;2022-07-23T07:45:24;18.40;99.90
5394;DHT22;2720;52.396;10.064;2022-07-23T07:47:51;18.30;99.90
5394;DHT22;2720;52.396;10.064;2022-07-23T07:50:20;18.60;99.90
5394;DHT22;2720;52.396;10.064;2022-07-23T07:52:47;18.50;99.90
5394;DHT22;2720;52.396;10.064;2022-07-23T07:55:15;18.70;99.90
5394;DHT22;2720;52.396;10.064;2022-07-23T07:57:42;18.80;99.90
5394;DHT22;2720;52.396;10.064;2022-07-23T08:00:11;18.90;99.90
5394;DHT22;2720;52.396;10.064;2022-07-23T08:02:42;18.80;99.90
5394;DHT22;2720;52.396;10.064;2022-07-23T08:05:10;18.80;99.90
5394;DHT22;2720;52.396;10.064;2022-07-23T08:07:37;18.80;99.90
5394;DHT22;2720;52.396;10.064;2022-07-23T08:10:06;18.80;99.90
5394;DHT22;2720;52.396;10.064;2022-07-23T08:12:42;18.80;99.90
5394;DHT22;2720;52.396;10.064;2022-07-23T08:17:39;18.90;99.90
5394;DHT22;2720;52.396;10.064;2022-07-23T08:20:08;19.80;99.90
5394;DHT22;2720;52.396;10.064;2022-07-23T08:25:13;19.40;99.90
5394;DHT22;2720;52.396;10.064;2022-07-23T08:27:43;19.50;99.90
5394;DHT22;2720;52.396;10.064;2022-07-23T08:30:11;19.60;99.90
5394;DHT22;2720;52.396;10.064;2022-07-23T08:32:48;19.60;99.90
5394;DHT22;2720;52.396;10.064;2022-07-23T08:35:16;19.40;99.90
5394;DHT22;2720;52.396;10.064;2022-07-23T08:37:43;20.00;99.90
5394;DHT22;2720;52.396;10.064;2022-07-23T08:40:12;20.30;99.90
5394;DHT22;2720;52.396;10.064;2022-07-23T08:42:39;20.30;99.90
5394;DHT22;2720;52.396;10.064;2022-07-23T08:45:08;20.10;99.90
5394;DHT22;2720;52.396;10.064;2022-07-23T08:47:37;20.20;99.90
5394;DHT22;2720;52.396;10.064;2022-07-23T08:55:04;20.10;99.90
5394;DHT22;2720;52.396;10.064;2022-07-23T08:57:31;20.90;99.90
5394;DHT22;2720;52.396;10.064;2022-07-23T08:59:59;20.90;99.90
5394;DHT22;2720;52.396;10.064;2022-07-23T09:02:26;21.10;99.90
5394;DHT22;2720;52.396;10.064;2022-07-23T09:04:54;21.30;99.90
5394;DHT22;2720;52.396;10.064;2022-07-23T09:10:05;20.80;99.90
5394;DHT22;2720;52.396;10.064;2022-07-23T09:12:33;20.70;99.90
5394;DHT22;2720;52.396;10.064;2022-07-23T09:15:04;20.60;99.90
5394;DHT22;2720;52.396;10.064;2022-07-23T09:17:37;20.80;99.90
5394;DHT22;2720;52.396;10.064;2022-07-23T09:20:11;20.50;99.90
5394;DHT22;2720;52.396;10.064;2022-07-23T09:22:38;20.60;99.90
5394;DHT22;2720;52.396;10.064;2022-07-23T09:25:11;20.50;99.90
5394;DHT22;2720;52.396;10.064;2022-07-23T09:27:53;20.70;99.90
5394;DHT22;2720;52.396;10.064;2022-07-23T09:30:21;20.70;99.90
5394;DHT22;2720;52.396;10.064;2022-07-23T09:33:05;21.20;99.90
5394;DHT22;2720;52.396;10.064;2022-07-23T09:35:51;21.20;99.90
5394;DHT22;2720;52.396;10.064;2022-07-23T09:38:19;21.00;99.90
5394;DHT22;2720;52.396;10.064;2022-07-23T09:40:47;20.90;99.90
5394;DHT22;2720;52.396;10.064;2022-07-23T09:43:31;20.90;99.90
5394;DHT22;2720;52.396;10.064;2022-07-23T09:46:17;20.60;99.90
5394;DHT22;2720;52.396;10.064;2022-07-23T09:48:44;21.30;99.90
5394;DHT22;2720;52.396;10.064;2022-07-23T09:51:13;21.40;99.90
5394;DHT22;2720;52.396;10.064;2022-07-23T09:53:41;21.30;99.90
5394;DHT22;2720;52.396;10.064;2022-07-23T09:56:09;21.20;99.90
5394;DHT22;2720;52.396;10.064;2022-07-23T09:58:40;21.30;99.90
5394;DHT22;2720;52.396;10.064;2022-07-23T10:01:16;21.20;99.90
5394;DHT22;2720;52.396;10.064;2022-07-23T10:03:43;21.20;99.90
5394;DHT22;2720;52.396;10.064;2022-07-23T10:06:10;21.10;99.90
5394;DHT22;2720;52.396;10.064;2022-07-23T10:08:41;21.10;99.90
5394;DHT22;2720;52.396;10.064;2022-07-23T10:11:11;21.20;99.90
5394;DHT22;2720;52.396;10.064;2022-07-23T10:13:39;21.70;99.90
5394;DHT22;2720;52.396;10.064;2022-07-23T10:16:18;21.60;99.90
5394;DHT22;2720;52.396;10.064;2022-07-23T10:18:46;21.30;99.90
5394;DHT22;2720;52.396;10.064;2022-07-23T10:21:18;21.00;99.90
5394;DHT22;2720;52.396;10.064;2022-07-23T10:23:59;20.90;99.90
5394;DHT22;2720;52.396;10.064;2022-07-23T10:26:35;21.00;99.90
5394;DHT22;2720;52.396;10.064;2022-07-23T10:29:17;21.80;99.90
5394;DHT22;2720;52.396;10.064;2022-07-23T10:31:53;21.60;99.90
5394;DHT22;2720;52.396;10.064;2022-07-23T10:36:58;21.20;99.90
5394;DHT22;2720;52.396;10.064;2022-07-23T10:39:30;21.50;99.90
5394;DHT22;2720;52.396;10.064;2022-07-23T10:42:11;21.20;99.90
5394;DHT22;2720;52.396;10.064;2022-07-23T10:44:39;21.10;99.90
5394;DHT22;2720;52.396;10.064;2022-07-23T10:47:08;21.10;99.90
5394;DHT22;2720;52.396;10.064;2022-07-23T10:53:11;21.20;99.90
5394;DHT22;2720;52.396;10.064;2022-07-23T10:55:43;21.10;99.90
5394;DHT22;2720;52.396;10.064;2022-07-23T10:58:11;21.20;99.90
5394;DHT22;2720;52.396;10.064;2022-07-23T11:00:43;21.10;99.90
5394;DHT22;2720;52.396;10.064;2022-07-23T11:03:29;22.10;99.90
5394;DHT22;2720;52.396;10.064;2022-07-23T11:05:58;22.00;99.90
5394;DHT22;2720;52.396;10.064;2022-07-23T11:08:25;22.50;99.90
5394;DHT22;2720;52.396;10.064;2022-07-23T11:10:56;22.80;99.90
5394;DHT22;2720;52.396;10.064;2022-07-23T11:13:45;23.00;99.90
5394;DHT22;2720;52.396;10.064;2022-07-23T11:16:24;23.20;99.90
5394;DHT22;2720;52.396;10.064;2022-07-23T11:19:06;23.70;99.90
5394;DHT22;2720;52.396;10.064;2022-07-23T11:21:51;22.90;99.90
5394;DHT22;2720;52.396;10.064;2022-07-23T11:24:22;23.00;99.90
5394;DHT22;2720;52.396;10.064;2022-07-23T11:27:04;22.50;99.90
5394;DHT22;2720;52.396;10.064;2022-07-23T11:29:55;22.40;99.90
5394;DHT22;2720;52.396;10.064;2022-07-23T11:32:40;22.10;99.90
5394;DHT22;2720;52.396;10.064;2022-07-23T11:35:27;23.10;99.90
5394;DHT22;2720;52.396;10.064;2022-07-23T11:38:04;23.60;99.90
5394;DHT22;2720;52.396;10.064;2022-07-23T11:40:31;24.10;99.90
5394;DHT22;2720;52.396;10.064;2022-07-23T11:45:32;25.00;99.90
5394;DHT22;2720;52.396;10.064;2022-07-23T11:48:00;25.40;99.90
5394;DHT22;2720;52.396;10.064;2022-07-23T11:50:28;24.20;99.90
5394;DHT22;2720;52.396;10.064;2022-07-23T11:52:55;24.40;99.90
5394;DHT22;2720;52.396;10.064;2022-07-23T11:55:22;24.60;99.90
5394;DHT22;2720;52.396;10.064;2022-07-23T11:57:51;23.40;99.90
5394;DHT22;2720;52.396;10.064;2022-07-23T12:00:22;23.60;99.90
5394;DHT22;2720;52.396;10.064;2022-07-23T12:02:50;23.20;99.90
5394;DHT22;2720;52.396;10.064;2022-07-23T12:05:20;22.50;99.90
5394;DHT22;2720;52.396;10.064;2022-07-23T12:07:49;22.50;99.90
5394;DHT22;2720;52.396;10.064;2022-07-23T12:10:17;24.10;99.90
5394;DHT22;2720;52.396;10.064;2022-07-23T12:12:46;23.30;99.90
5394;DHT22;2720;52.396;10.064;2022-07-23T12:20:14;24.50;99.90
5394;DHT22;2720;52.396;10.064;2022-07-23T12:22:44;25.20;99.90
5394;DHT22;2720;52.396;10.064;2022-07-23T12:25:13;24.90;99.90
5394;DHT22;2720;52.396;10.064;2022-07-23T12:27:41;24.50;99.90
5394;DHT22;2720;52.396;10.064;2022-07-23T12:30:22;24.30;99.90
5394;DHT22;2720;52.396;10.064;2022-07-23T12:35:21;25.10;99.90
5394;DHT22;2720;52.396;10.064;2022-07-23T12:37:49;26.20;99.90
5394;DHT22;2720;52.396;10.064;2022-07-23T12:40:29;26.60;99.90
5394;DHT22;2720;52.396;10.064;2022-07-23T12:42:58;27.20;99.90
5394;DHT22;2720;52.396;10.064;2022-07-23T12:45:26;27.30;99.90
5394;DHT22;2720;52.396;10.064;2022-07-23T12:47:57;27.70;99.90
5394;DHT22;2720;52.396;10.064;2022-07-23T12:50:37;27.50;99.90
5394;DHT22;2720;52.396;10.064;2022-07-23T12:53:05;28.00;99.90
5394;DHT22;2720;52.396;10.064;2022-07-23T12:55:33;27.90;99.90
5394;DHT22;2720;52.396;10.064;2022-07-23T12:58:07;28.10;99.90
5394;DHT22;2720;52.396;10.064;2022-07-23T13:00:53;28.80;99.90
5394;DHT22;2720;52.396;10.064;2022-07-23T13:03:23;29.00;99.90
5394;DHT22;2720;52.396;10.064;2022-07-23T13:05:51;29.00;99.90
5394;DHT22;2720;52.396;10.064;2022-07-23T13:08:18;27.30;99.90
5394;DHT22;2720;52.396;10.064;2022-07-23T13:10:45;26.90;99.90
5394;DHT22;2720;52.396;10.064;2022-07-23T13:13:15;27.10;99.90
5394;DHT22;2720;52.396;10.064;2022-07-23T13:15:42;27.60;99.90
5394;DHT22;2720;52.396;10.064;2022-07-23T13:18:09;27.40;99.90
5394;DHT22;2720;52.396;10.064;2022-07-23T13:20:38;27.40;99.90
5394;DHT22;2720;52.396;10.064;2022-07-23T13:23:05;27.50;99.90
5394;DHT22;2720;52.396;10.064;2022-07-23T13:25:33;27.90;99.90
5394;DHT22;2720;52.396;10.064;2022-07-23T13:28:00;27.40;99.90
5394;DHT22;2720;52.396;10.064;2022-07-23T13:30:27;27.80;99.90
5394;DHT22;2720;52.396;10.064;2022-07-23T13:32:56;28.10;99.90
5394;DHT22;2720;52.396;10.064;2022-07-23T13:35:24;27.90;99.90
5394;DHT22;2720;52.396;10.064;2022-07-23T13:37:52;28.10;99.90
5394;DHT22;2720;52.396;10.064;2022-07-23T13:40:19;28.10;99.90
5394;DHT22;2720;52.396;10.064;2022-07-23T13:42:46;28.00;99.90
5394;DHT22;2720;52.396;10.064;2022-07-23T13:45:16;28.80;99.90
5394;DHT22;2720;52.396;10.064;2022-07-23T13:50:11;30.10;99.90
5394;DHT22;2720;52.396;10.064;2022-07-23T13:52:38;29.80;99.90
5394;DHT22;2720;52.396;10.064;2022-07-23T13:55:07;29.40;99.90
5394;DHT22;2720;52.396;10.064;2022-07-23T13:57:34;29.40;99.90
5394;DHT22;2720;52.396;10.064;2022-07-23T14:00:02;29.40;99.90
5394;DHT22;2720;52.396;10.064;2022-07-23T14:02:29;29.50;99.90
5394;DHT22;2720;52.396;10.064;2022-07-23T14:04:56;29.90;99.90
5394;DHT22;2720;52.396;10.064;2022-07-23T14:09:53;29.80;99.90
5394;DHT22;2720;52.396;10.064;2022-07-23T14:12:21;29.10;99.90
5394;DHT22;2720;52.396;10.064;2022-07-23T14:14:48;29.20;99.90
5394;DHT22;2720;52.396;10.064;2022-07-23T14:17:15;29.00;99.90
5394;DHT22;2720;52.396;10.064;2022-07-23T14:19:43;28.80;99.70
5394;DHT22;2720;52.396;10.064;2022-07-23T14:22:10;28.90;97.80
5394;DHT22;2720;52.396;10.064;2022-07-23T14:24:37;29.10;98.60
5394;DHT22;2720;52.396;10.064;2022-07-23T14:27:04;29.10;99.10
5394;DHT22;2720;52.396;10.064;2022-07-23T14:29:33;30.00;93.10
5394;DHT22;2720;52.396;10.064;2022-07-23T14:32:01;30.30;93.20
5394;DHT22;2720;52.396;10.064;2022-07-23T14:34:29;30.20;93.40
5394;DHT22;2720;52.396;10.064;2022-07-23T14:36:56;30.00;93.60
5394;DHT22;2720;52.396;10.064;2022-07-23T14:39:24;29.30;99.90
5394;DHT22;2720;52.396;10.064;2022-07-23T14:41:51;29.00;97.20
5394;DHT22;2720;52.396;10.064;2022-07-23T14:44:19;28.40;95.50
5394;DHT22;2720;52.396;10.064;2022-07-23T14:46:47;27.60;96.40
5394;DHT22;2720;52.396;10.064;2022-07-23T14:49:17;27.60;99.50
5394;DHT22;2720;52.396;10.064;2022-07-23T14:51:44;27.60;99.00
5394;DHT22;2720;52.396;10.064;2022-07-23T14:54:11;27.50;95.60
5394;DHT22;2720;52.396;10.064;2022-07-23T14:56:39;27.90;94.80
5394;DHT22;2720;52.396;10.064;2022-07-23T14:59:07;27.80;95.30
5394;DHT22;2720;52.396;10.064;2022-07-23T15:01:35;28.60;97.00
5394;DHT22;2720;52.396;10.064;2022-07-23T15:04:04;28.10;98.50
5394;DHT22;2720;52.396;10.064;2022-07-23T15:06:34;27.50;97.70
5394;DHT22;2720;52.396;10.064;2022-07-23T15:09:01;27.50;98.50
5394;DHT22;2720;52.396;10.064;2022-07-23T15:11:29;27.50;98.80
5394;DHT22;2720;52.396;10.064;2022-07-23T15:13:59;27.40;98.80
5394;DHT22;2720;52.396;10.064;2022-07-23T15:16:26;27.30;98.40
5394;DHT22;2720;52.396;10.064;2022-07-23T15:18:53;27.40;95.20
5394;DHT22;2720;52.396;10.064;2022-07-23T15:21:22;27.20;97.10
5394;DHT22;2720;52.396;10.064;2022-07-23T15:23:49;27.10;97.90
5394;DHT22;2720;52.396;10.064;2022-07-23T15:26:17;27.00;98.10
5394;DHT22;2720;52.396;10.064;2022-07-23T15:28:44;27.20;99.40
5394;DHT22;2720;52.396;10.064;2022-07-23T15:31:11;27.10;99.70
5394;DHT22;2720;52.396;10.064;2022-07-23T15:33:38;27.20;99.50
5394;DHT22;2720;52.396;10.064;2022-07-23T15:36:07;27.10;99.90
5394;DHT22;2720;52.396;10.064;2022-07-23T15:38:36;26.90;99.90
5394;DHT22;2720;52.396;10.064;2022-07-23T15:41:03;27.10;98.90
5394;DHT22;2720;52.396;10.064;2022-07-23T15:43:30;27.30;99.90
5394;DHT22;2720;52.396;10.064;2022-07-23T15:45:58;27.50;98.00
5394;DHT22;2720;52.396;10.064;2022-07-23T15:48:25;27.40;98.10
5394;DHT22;2720;52.396;10.064;2022-07-23T15:50:52;27.10;98.40
5394;DHT22;2720;52.396;10.064;2022-07-23T15:53:19;26.90;98.80
5394;DHT22;2720;52.396;10.064;2022-07-23T15:55:47;26.80;99.90
5394;DHT22;2720;52.396;10.064;2022-07-23T15:58:14;26.30;97.10
5394;DHT22;2720;52.396;10.064;2022-07-23T16:00:41;26.50;97.40
5394;DHT22;2720;52.396;10.064;2022-07-23T16:03:08;26.80;98.00
5394;DHT22;2720;52.396;10.064;2022-07-23T16:05:35;27.20;98.60
5394;DHT22;2720;52.396;10.064;2022-07-23T16:08:03;27.70;99.70
5394;DHT22;2720;52.396;10.064;2022-07-23T16:10:31;27.70;99.90
5394;DHT22;2720;52.396;10.064;2022-07-23T16:13:00;27.60;99.90
5394;DHT22;2720;52.396;10.064;2022-07-23T16:15:26;27.70;99.90
5394;DHT22;2720;52.396;10.064;2022-07-23T16:17:54;27.70;99.90
5394;DHT22;2720;52.396;10.064;2022-07-23T16:20:22;28.20;99.90
5394;DHT22;2720;52.396;10.064;2022-07-23T16:22:49;26.00;99.90
5394;DHT22;2720;52.396;10.064;2022-07-23T16:25:16;26.60;99.90
5394;DHT22;2720;52.396;10.064;2022-07-23T16:27:43;26.00;97.00
5394;DHT22;2720;52.396;10.064;2022-07-23T16:30:13;26.20;97.80
5394;DHT22;2720;52.396;10.064;2022-07-23T16:32:40;27.00;99.60
5394;DHT22;2720;52.396;10.064;2022-07-23T16:35:08;25.60;99.90
5394;DHT22;2720;52.396;10.064;2022-07-23T16:37:36;25.30;99.90
5394;DHT22;2720;52.396;10.064;2022-07-23T16:40:04;26.20;99.90
5394;DHT22;2720;52.396;10.064;2022-07-23T16:42:31;24.70;99.90
5394;DHT22;2720;52.396;10.064;2022-07-23T16:44:58;24.50;99.90
5394;DHT22;2720;52.396;10.064;2022-07-23T16:47:27;24.30;99.90
5394;DHT22;2720;52.396;10.064;2022-07-23T16:49:54;24.10;99.90
5394;DHT22;2720;52.396;10.064;2022-07-23T16:52:21;23.40;99.90
5394;DHT22;2720;52.396;10.064;2022-07-23T16:54:49;23.90;99.90
5394;DHT22;2720;52.396;10.064;2022-07-23T16:57:16;23.90;97.90
5394;DHT22;2720;52.396;10.064;2022-07-23T16:59:43;24.40;98.60
5394;DHT22;2720;52.396;10.064;2022-07-23T17:02:10;23.20;99.90
5394;DHT22;2720;52.396;10.064;2022-07-23T17:04:39;21.90;99.90
5394;DHT22;2720;52.396;10.064;2022-07-23T17:07:06;23.80;99.90
5394;DHT22;2720;52.396;10.064;2022-07-23T17:09:34;23.80;99.90
5394;DHT22;2720;52.396;10.064;2022-07-23T17:16:57;25.50;99.90
5394;DHT22;2720;52.396;10.064;2022-07-23T17:19:25;25.90;99.90
5394;DHT22;2720;52.396;10.064;2022-07-23T17:21:53;26.30;99.40
5394;DHT22;2720;52.396;10.064;2022-07-23T17:24:21;25.80;99.90
5394;DHT22;2720;52.396;10.064;2022-07-23T17:26:48;27.00;99.60
5394;DHT22;2720;52.396;10.064;2022-07-23T17:29:16;26.20;96.20
5394;DHT22;2720;52.396;10.064;2022-07-23T17:31:43;27.60;94.90
5394;DHT22;2720;52.396;10.064;2022-07-23T17:34:10;28.00;97.40
5394;DHT22;2720;52.396;10.064;2022-07-23T17:36:38;27.90;96.60
5394;DHT22;2720;52.396;10.064;2022-07-23T17:39:07;28.40;99.90
5394;DHT22;2720;52.396;10.064;2022-07-23T17:41:34;28.30;99.90
5394;DHT22;2720;52.396;10.064;2022-07-23T17:46:29;28.40;99.90
5394;DHT22;2720;52.396;10.064;2022-07-23T17:48:57;28.30;99.90
5394;DHT22;2720;52.396;10.064;2022-07-23T17:51:25;28.00;99.50
5394;DHT22;2720;52.396;10.064;2022-07-23T17:53:52;27.90;97.90
5394;DHT22;2720;52.396;10.064;2022-07-23T17:56:21;28.50;99.90
5394;DHT22;2720;52.396;10.064;2022-07-23T18:01:17;26.50;98.20
5394;DHT22;2720;52.396;10.064;2022-07-23T18:03:44;27.40;99.90
5394;DHT22;2720;52.396;10.064;2022-07-23T18:06:12;26.30;99.90
5394;DHT22;2720;52.396;10.064;2022-07-23T18:08:39;25.20;99.90
5394;DHT22;2720;52.396;10.064;2022-07-23T18:11:07;24.50;99.90
5394;DHT22;2720;52.396;10.064;2022-07-23T18:13:36;23.40;99.90
5394;DHT22;2720;52.396;10.064;2022-07-23T18:16:03;23.20;99.90
5394;DHT22;2720;52.396;10.064;2022-07-23T18:18:31;22.90;99.90
5394;DHT22;2720;52.396;10.064;2022-07-23T18:21:01;23.70;99.90
5394;DHT22;2720;52.396;10.064;2022-07-23T18:23:30;22.40;99.90
5394;DHT22;2720;52.396;10.064;2022-07-23T18:25:57;22.20;99.90
5394;DHT22;2720;52.396;10.064;2022-07-23T18:28:25;22.00;99.90
5394;DHT22;2720;52.396;10.064;2022-07-23T18:30:53;21.90;99.90
5394;DHT22;2720;52.396;10.064;2022-07-23T18:33:20;21.80;99.90
5394;DHT22;2720;52.396;10.064;2022-07-23T18:35:48;21.70;99.90